createdAt,value
2023-03-13T00:01:22.982Z,4.47
2023-03-13T00:03:50.560Z,6.28
2023-03-13T00:06:18.445Z,4.88
2023-03-13T00:08:46.092Z,6.05
2023-03-13T00:11:15.136Z,5.70
2023-03-13T00:13:43.794Z,4.85
2023-03-13T00:16:15.350Z,5.00
2023-03-13T00:18:48.228Z,5.20
2023-03-13T00:21:17.232Z,4.20
2023-03-13T00:23:45.152Z,4.88
2023-03-13T00:26:16.346Z,4.10
2023-03-13T00:28:45.918Z,4.93
2023-03-13T00:31:22.298Z,4.43
2023-03-13T00:33:53.841Z,4.50
2023-03-13T00:36:25.191Z,3.95
2023-03-13T00:38:54.030Z,4.07
2023-03-13T00:41:24.858Z,5.15
2023-03-13T00:43:52.832Z,4.57
2023-03-13T00:46:24.347Z,5.53
2023-03-13T00:48:53.134Z,5.50
2023-03-13T00:51:23.375Z,5.85
2023-03-13T00:53:51.281Z,6.70
2023-03-13T00:56:20.130Z,6.07
2023-03-13T00:58:49.327Z,5.60
2023-03-13T01:01:31.982Z,5.47
2023-03-13T01:04:04.289Z,5.22
2023-03-13T01:06:35.024Z,5.30
2023-03-13T01:09:06.088Z,6.30
2023-03-13T01:11:38.126Z,6.65
2023-03-13T01:14:10.869Z,7.47
2023-03-13T01:16:38.851Z,7.47
2023-03-13T01:19:13.121Z,7.82
2023-03-13T01:21:43.146Z,6.90
2023-03-13T01:26:38.556Z,6.70
2023-03-13T01:29:05.761Z,6.97
2023-03-13T01:31:35.531Z,7.97
2023-03-13T01:34:05.857Z,6.88
2023-03-13T01:36:36.422Z,7.50
2023-03-13T01:39:04.590Z,6.68
2023-03-13T01:41:31.877Z,5.65
2023-03-13T01:43:59.414Z,5.80
2023-03-13T01:46:33.789Z,5.45
2023-03-13T01:49:26.324Z,6.63
2023-03-13T01:52:27.314Z,5.38
2023-03-13T01:55:13.467Z,4.95
2023-03-13T01:57:48.789Z,4.68
2023-03-13T02:00:24.592Z,5.53
2023-03-13T02:02:56.769Z,6.05
2023-03-13T02:05:27.043Z,5.32
2023-03-13T02:08:39.259Z,5.00
2023-03-13T02:11:58.364Z,6.03
2023-03-13T02:14:28.703Z,9.90
2023-03-13T02:16:56.281Z,9.35
2023-03-13T02:19:45.898Z,9.18
2023-03-13T02:25:23.397Z,9.40
2023-03-13T02:28:05.482Z,6.70
2023-03-13T02:30:35.138Z,7.30
2023-03-13T02:33:04.089Z,7.10
2023-03-13T02:35:32.743Z,7.22
2023-03-13T02:38:07.603Z,6.57
2023-03-13T02:40:42.439Z,7.15
2023-03-13T02:43:36.206Z,5.80
2023-03-13T02:46:15.433Z,7.40
2023-03-13T02:48:52.820Z,7.35
2023-03-13T02:51:37.299Z,7.47
2023-03-13T02:54:15.384Z,6.28
2023-03-13T02:56:46.297Z,7.15
2023-03-13T02:59:13.809Z,7.18
2023-03-13T03:01:43.893Z,8.00
2023-03-13T03:04:11.551Z,7.43
2023-03-13T03:06:38.872Z,14.02
2023-03-13T03:09:06.220Z,11.70
2023-03-13T03:11:36.395Z,12.10
2023-03-13T03:14:09.061Z,12.80
2023-03-13T03:16:40.656Z,11.63
2023-03-13T03:19:10.581Z,10.80
2023-03-13T03:21:38.350Z,9.13
2023-03-13T03:24:06.569Z,9.32
2023-03-13T03:26:35.000Z,8.68
2023-03-13T03:29:07.222Z,9.55
2023-03-13T03:31:34.850Z,9.00
2023-03-13T03:34:02.440Z,7.70
2023-03-13T03:36:30.036Z,8.65
2023-03-13T03:38:58.656Z,6.63
2023-03-13T03:41:27.414Z,7.90
2023-03-13T03:43:55.922Z,7.25
2023-03-13T03:46:27.681Z,7.00
2023-03-13T03:48:56.947Z,6.35
2023-03-13T03:51:25.032Z,8.73
2023-03-13T03:53:52.212Z,7.63
2023-03-13T03:56:19.685Z,9.27
2023-03-13T03:58:52.098Z,8.93
2023-03-13T04:01:37.841Z,11.07
2023-03-13T04:04:06.253Z,9.68
2023-03-13T04:06:33.528Z,8.25
2023-03-13T04:09:02.647Z,9.30
2023-03-13T04:11:31.528Z,8.73
2023-03-13T04:13:58.799Z,8.57
2023-03-13T04:16:27.013Z,7.30
2023-03-13T04:18:55.996Z,8.73
2023-03-13T04:21:25.740Z,9.60
2023-03-13T04:24:01.684Z,9.75
2023-03-13T04:26:29.982Z,10.60
2023-03-13T04:28:59.091Z,9.68
2023-03-13T04:31:45.080Z,10.13
2023-03-13T04:34:21.400Z,8.80
2023-03-13T04:37:08.740Z,19.52
2023-03-13T04:39:51.250Z,53.03
2023-03-13T04:42:37.219Z,17.90
2023-03-13T04:45:33.558Z,8.43
2023-03-13T04:48:19.692Z,8.27
2023-03-13T04:51:02.947Z,9.27
2023-03-13T04:53:50.309Z,8.95
2023-03-13T04:56:42.108Z,11.77
2023-03-13T04:59:30.067Z,12.32
2023-03-13T05:02:12.821Z,14.45
2023-03-13T05:04:58.743Z,12.82
2023-03-13T05:07:46.363Z,13.40
2023-03-13T05:10:31.367Z,12.35
2023-03-13T05:13:10.463Z,14.10
2023-03-13T05:15:54.630Z,15.48
2023-03-13T05:18:31.179Z,15.27
2023-03-13T05:21:07.028Z,16.05
2023-03-13T05:23:52.675Z,10.75
2023-03-13T05:26:33.302Z,10.07
2023-03-13T05:29:19.153Z,9.63
2023-03-13T05:32:09.276Z,7.93
2023-03-13T05:34:55.049Z,7.20
2023-03-13T05:37:47.677Z,8.63
2023-03-13T05:40:38.223Z,8.75
2023-03-13T05:43:22.034Z,8.45
2023-03-13T05:46:27.875Z,8.80
2023-03-13T05:49:05.686Z,10.50
2023-03-13T05:51:49.919Z,10.98
2023-03-13T05:54:46.111Z,10.13
2023-03-13T05:57:13.306Z,8.57
2023-03-13T05:59:52.733Z,10.43
2023-03-13T06:02:38.459Z,8.52
2023-03-13T06:05:07.690Z,10.68
2023-03-13T06:07:35.262Z,12.70
2023-03-13T06:10:03.977Z,14.02
2023-03-13T06:14:58.534Z,19.70
2023-03-13T06:17:45.930Z,16.10
2023-03-13T06:20:13.634Z,15.82
2023-03-13T06:22:41.799Z,13.95
2023-03-13T06:25:11.339Z,14.57
2023-03-13T06:27:40.050Z,16.13
2023-03-13T06:30:10.258Z,15.02
2023-03-13T06:32:37.607Z,15.93
2023-03-13T06:35:06.075Z,15.55
2023-03-13T06:37:33.448Z,15.68
2023-03-13T06:40:00.591Z,15.38
2023-03-13T06:42:27.896Z,13.75
2023-03-13T06:44:55.015Z,10.73
2023-03-13T06:47:22.269Z,10.13
2023-03-13T06:49:49.872Z,10.50
2023-03-13T06:52:18.392Z,9.50
2023-03-13T06:54:46.438Z,12.93
2023-03-13T06:57:13.656Z,14.15
2023-03-13T06:59:40.850Z,16.70
2023-03-13T07:02:12.493Z,16.65
2023-03-13T07:04:39.663Z,14.55
2023-03-13T07:07:07.250Z,22.27
2023-03-13T07:09:34.556Z,19.30
2023-03-13T07:12:02.789Z,14.85
2023-03-13T07:14:30.142Z,13.73
2023-03-13T07:16:59.054Z,16.33
2023-03-13T07:19:26.934Z,17.90
2023-03-13T07:21:54.639Z,19.23
2023-03-13T07:24:22.000Z,16.52
2023-03-13T07:27:04.132Z,15.27
2023-03-13T07:29:33.342Z,12.68
2023-03-13T07:32:00.580Z,9.93
2023-03-13T07:34:27.910Z,13.10
2023-03-13T07:36:55.149Z,11.95
2023-03-13T07:39:22.396Z,11.43
2023-03-13T07:41:49.496Z,8.82
2023-03-13T07:44:17.933Z,7.90
2023-03-13T07:46:47.898Z,9.70
2023-03-13T07:49:15.578Z,9.65
2023-03-13T07:51:44.404Z,9.23
2023-03-13T07:54:12.099Z,8.75
2023-03-13T07:56:39.760Z,11.02
2023-03-13T07:59:07.153Z,16.30
2023-03-13T08:01:34.526Z,16.80
2023-03-13T08:04:02.139Z,15.52
2023-03-13T08:06:36.981Z,14.00
2023-03-13T08:09:05.086Z,10.82
2023-03-13T08:11:32.454Z,12.98
2023-03-13T08:13:59.886Z,13.98
2023-03-13T08:16:31.224Z,16.67
2023-03-13T08:19:00.540Z,14.60
2023-03-13T08:21:30.832Z,14.90
2023-03-13T08:24:00.964Z,12.20
2023-03-13T08:26:29.898Z,11.23
2023-03-13T08:29:00.516Z,10.63
2023-03-13T08:31:35.015Z,10.15
2023-03-13T08:34:02.516Z,11.32
2023-03-13T08:36:36.347Z,9.65
2023-03-13T08:39:23.776Z,7.82
2023-03-13T08:41:51.018Z,8.55
2023-03-13T08:44:22.114Z,7.63
2023-03-13T08:46:49.454Z,9.48
2023-03-13T08:49:17.138Z,8.15
2023-03-13T08:51:44.525Z,6.35
2023-03-13T08:54:11.796Z,5.82
2023-03-13T08:56:40.339Z,4.70
2023-03-13T08:59:07.629Z,6.33
2023-03-13T09:01:36.678Z,4.90
2023-03-13T09:04:05.147Z,3.13
2023-03-13T09:06:34.722Z,3.70
2023-03-13T09:09:03.436Z,4.72
2023-03-13T09:11:32.655Z,4.07
2023-03-13T09:13:59.890Z,3.83
2023-03-13T09:16:30.037Z,4.13
2023-03-13T09:18:58.569Z,4.25
2023-03-13T09:21:32.656Z,3.30
2023-03-13T09:24:00.883Z,5.18
2023-03-13T09:26:28.509Z,4.20
2023-03-13T09:28:56.071Z,3.20
2023-03-13T09:31:30.016Z,3.42
2023-03-13T09:33:58.164Z,3.45
2023-03-13T09:36:26.473Z,3.75
2023-03-13T09:38:57.034Z,3.60
2023-03-13T09:42:13.862Z,3.88
2023-03-13T09:45:03.524Z,4.32
2023-03-13T09:47:43.684Z,5.05
2023-03-13T09:50:39.518Z,4.15
2023-03-13T09:53:17.049Z,4.32
2023-03-13T09:55:46.448Z,4.68
2023-03-13T09:58:22.458Z,4.03
2023-03-13T10:01:00.190Z,3.63
2023-03-13T10:03:44.292Z,5.07
2023-03-13T10:06:37.726Z,4.88
2023-03-13T10:09:21.575Z,3.10
2023-03-13T10:12:20.903Z,3.05
2023-03-13T10:15:01.188Z,2.83
2023-03-13T10:17:40.194Z,3.75
2023-03-13T10:20:33.052Z,3.47
2023-03-13T10:23:02.110Z,5.68
2023-03-13T10:25:37.818Z,5.50
2023-03-13T10:28:19.650Z,3.63
2023-03-13T10:31:23.468Z,3.75
2023-03-13T10:33:50.644Z,3.65
2023-03-13T10:36:19.826Z,3.83
2023-03-13T10:38:50.197Z,4.80
2023-03-13T10:41:31.122Z,4.03
2023-03-13T10:44:06.294Z,3.80
2023-03-13T10:46:40.281Z,3.30
2023-03-13T10:49:22.871Z,3.15
2023-03-13T10:52:01.647Z,2.88
2023-03-13T10:54:36.719Z,3.38
2023-03-13T10:57:18.814Z,3.13
2023-03-13T10:59:49.732Z,3.05
2023-03-13T11:02:35.791Z,3.33
2023-03-13T11:05:25.613Z,3.53
2023-03-13T11:07:54.386Z,4.25
2023-03-13T11:10:29.385Z,3.45
2023-03-13T11:12:58.645Z,3.00
2023-03-13T11:15:52.857Z,3.13
2023-03-13T11:18:29.585Z,2.50
2023-03-13T11:21:08.728Z,3.38
2023-03-13T11:23:51.689Z,2.65
2023-03-13T11:27:05.290Z,2.88
2023-03-13T11:30:23.314Z,3.38
2023-03-13T11:33:09.686Z,3.40
2023-03-13T11:35:49.374Z,4.70
2023-03-13T11:38:40.570Z,2.72
2023-03-13T11:41:33.305Z,2.33
2023-03-13T11:44:28.070Z,2.42
2023-03-13T11:47:20.116Z,3.33
2023-03-13T11:50:14.940Z,2.35
2023-03-13T11:53:23.213Z,2.10
2023-03-13T11:56:35.360Z,2.87
2023-03-13T11:59:20.916Z,1.58
2023-03-13T12:02:50.835Z,2.08
2023-03-13T12:05:20.532Z,1.83
2023-03-13T12:08:03.114Z,2.00
2023-03-13T12:10:39.524Z,1.50
2023-03-13T12:13:28.096Z,2.00
2023-03-13T12:16:02.011Z,2.30
2023-03-13T12:18:38.025Z,1.65
2023-03-13T12:21:30.730Z,1.85
2023-03-13T12:24:21.285Z,1.80
2023-03-13T12:27:04.541Z,1.80
2023-03-13T12:30:00.693Z,2.00
2023-03-13T12:32:55.679Z,2.08
2023-03-13T12:35:33.093Z,2.00
2023-03-13T12:38:59.626Z,2.25
2023-03-13T12:41:49.344Z,2.25
2023-03-13T12:44:20.440Z,1.83
2023-03-13T12:47:17.414Z,1.85
2023-03-13T12:50:27.907Z,2.15
2023-03-13T12:53:38.095Z,2.65
2023-03-13T12:56:33.378Z,1.77
2023-03-13T12:59:21.809Z,1.85
2023-03-13T13:01:53.742Z,1.90
2023-03-13T13:04:27.974Z,1.70
2023-03-13T13:07:05.438Z,2.63
2023-03-13T13:09:59.108Z,2.05
2023-03-13T13:12:26.567Z,1.80
2023-03-13T13:15:25.373Z,1.55
2023-03-13T13:18:26.301Z,1.85
2023-03-13T13:21:02.888Z,1.58
2023-03-13T13:23:53.259Z,2.33
2023-03-13T13:26:29.061Z,1.38
2023-03-13T13:29:00.689Z,1.50
2023-03-13T13:31:50.408Z,1.35
2023-03-13T13:34:33.879Z,1.85
2023-03-13T13:37:28.570Z,1.65
2023-03-13T13:40:16.217Z,1.88
2023-03-13T13:42:58.472Z,1.98
2023-03-13T13:45:36.092Z,2.22
2023-03-13T13:48:35.770Z,1.67
2023-03-13T13:51:13.528Z,2.60
2023-03-13T13:53:57.643Z,1.88
2023-03-13T13:56:28.010Z,1.20
2023-03-13T13:59:24.848Z,1.83
2023-03-13T14:02:17.172Z,1.73
2023-03-13T14:05:01.112Z,1.10
2023-03-13T14:07:31.853Z,1.52
2023-03-13T14:10:06.070Z,1.08
2023-03-13T14:12:38.138Z,1.48
2023-03-13T14:15:20.398Z,1.65
2023-03-13T14:18:01.422Z,1.75
2023-03-13T14:20:38.428Z,1.67
2023-03-13T14:23:11.245Z,1.83
2023-03-13T14:25:50.031Z,1.45
2023-03-13T14:28:22.782Z,1.83
2023-03-13T14:30:53.091Z,2.70
2023-03-13T14:33:20.573Z,1.92
2023-03-13T14:35:48.900Z,1.55
2023-03-13T14:38:25.397Z,1.40
2023-03-13T14:40:57.070Z,2.45
2023-03-13T14:43:41.955Z,1.38
2023-03-13T14:46:32.356Z,2.65
2023-03-13T14:49:29.972Z,2.30
2023-03-13T14:52:25.670Z,1.85
2023-03-13T14:55:22.309Z,2.03
2023-03-13T14:58:04.532Z,1.67
2023-03-13T15:00:40.596Z,1.30
2023-03-13T15:03:16.886Z,1.50
2023-03-13T15:05:45.278Z,1.40
2023-03-13T15:08:20.470Z,1.75
2023-03-13T15:10:48.981Z,1.48
2023-03-13T15:13:31.290Z,1.23
2023-03-13T15:15:59.821Z,1.30
2023-03-13T15:18:33.885Z,1.40
2023-03-13T15:21:10.109Z,1.48
2023-03-13T15:23:37.445Z,2.40
2023-03-13T15:26:05.308Z,1.50
2023-03-13T15:28:33.101Z,1.70
2023-03-13T15:31:00.542Z,2.67
2023-03-13T15:33:29.318Z,1.50
2023-03-13T15:35:57.005Z,1.38
2023-03-13T15:38:26.739Z,2.05
2023-03-13T15:40:54.400Z,1.38
2023-03-13T15:43:22.594Z,0.95
2023-03-13T15:45:51.970Z,1.67
2023-03-13T15:51:03.511Z,1.80
2023-03-13T15:53:34.803Z,1.58
2023-03-13T15:56:11.126Z,1.38
2023-03-13T15:58:38.392Z,2.13
2023-03-13T16:01:06.125Z,2.35
2023-03-13T16:03:33.428Z,1.67
2023-03-13T16:06:00.669Z,2.17
2023-03-13T16:08:37.462Z,1.25
2023-03-13T16:11:05.118Z,2.28
2023-03-13T16:13:32.786Z,2.67
2023-03-13T16:16:00.174Z,2.95
2023-03-13T16:18:27.534Z,2.70
2023-03-13T16:20:54.788Z,4.38
2023-03-13T16:23:22.047Z,3.58
2023-03-13T16:25:49.259Z,4.10
2023-03-13T16:28:16.550Z,2.95
2023-03-13T16:30:44.828Z,4.30
2023-03-13T16:33:12.098Z,5.65
2023-03-13T16:35:39.751Z,4.70
2023-03-13T16:38:10.344Z,5.63
2023-03-13T16:40:37.557Z,6.85
2023-03-13T16:43:04.679Z,5.10
2023-03-13T16:45:31.760Z,5.68
2023-03-13T16:47:58.871Z,4.05
2023-03-13T16:50:34.343Z,2.50
2023-03-13T16:53:02.397Z,2.45
2023-03-13T16:55:35.470Z,3.38
2023-03-13T16:58:03.559Z,3.20
2023-03-13T17:00:32.091Z,5.32
2023-03-13T17:03:00.778Z,5.20
2023-03-13T17:05:28.623Z,6.65
2023-03-13T17:07:56.341Z,4.45
2023-03-13T17:10:32.479Z,6.55
2023-03-13T17:13:00.104Z,5.63
2023-03-13T17:15:28.283Z,5.85
2023-03-13T17:17:55.575Z,6.18
2023-03-13T17:20:29.117Z,8.13
2023-03-13T17:22:56.908Z,7.60
2023-03-13T17:25:24.885Z,7.15
2023-03-13T17:27:52.340Z,5.28
2023-03-13T17:30:26.813Z,5.18
2023-03-13T17:32:54.376Z,5.32
2023-03-13T17:35:22.485Z,4.07
2023-03-13T17:37:50.117Z,3.13
2023-03-13T17:40:28.097Z,2.70
2023-03-13T17:42:56.466Z,4.63
2023-03-13T17:45:24.622Z,3.90
2023-03-13T17:47:53.680Z,5.32
2023-03-13T17:50:28.498Z,4.60
2023-03-13T17:52:56.028Z,10.63
2023-03-13T17:55:23.812Z,23.88
2023-03-13T17:57:52.665Z,21.63
2023-03-13T18:00:23.792Z,20.02
2023-03-13T18:02:51.368Z,20.02
2023-03-13T18:05:18.765Z,22.35
2023-03-13T18:07:46.851Z,16.52
2023-03-13T18:10:25.498Z,15.57
2023-03-13T18:12:53.282Z,11.60
2023-03-13T18:15:25.976Z,13.70
2023-03-13T18:17:53.406Z,15.52
2023-03-13T18:20:27.722Z,18.67
2023-03-13T18:22:58.742Z,22.63
2023-03-13T18:25:29.568Z,15.65
2023-03-13T18:27:57.137Z,11.65
2023-03-13T18:30:26.546Z,10.27
2023-03-13T18:35:20.843Z,8.27
2023-03-13T18:37:48.774Z,6.88
2023-03-13T18:40:19.062Z,7.65
2023-03-13T18:42:46.437Z,7.90
2023-03-13T18:45:19.388Z,8.00
2023-03-13T18:47:49.861Z,11.82
2023-03-13T18:50:30.552Z,14.93
2023-03-13T18:52:59.688Z,10.60
2023-03-13T18:55:30.237Z,9.32
2023-03-13T18:57:57.397Z,7.85
2023-03-13T19:00:28.726Z,9.13
2023-03-13T19:02:55.967Z,7.97
2023-03-13T19:05:23.708Z,7.25
2023-03-13T19:07:51.009Z,7.93
2023-03-13T19:10:28.349Z,6.22
2023-03-13T19:12:56.713Z,4.80
2023-03-13T19:15:29.536Z,4.95
2023-03-13T19:18:01.858Z,5.22
2023-03-13T19:20:30.298Z,8.18
2023-03-13T19:22:59.963Z,5.97
2023-03-13T19:25:28.854Z,12.82
2023-03-13T19:27:56.108Z,9.30
2023-03-13T19:30:25.830Z,6.75
2023-03-13T19:32:53.210Z,4.72
2023-03-13T19:35:21.260Z,5.13
2023-03-13T19:37:48.765Z,10.95
2023-03-13T19:40:27.845Z,4.63
2023-03-13T19:42:55.149Z,5.60
2023-03-13T19:45:22.537Z,3.25
2023-03-13T19:47:49.972Z,3.42
2023-03-13T19:50:27.801Z,4.38
2023-03-13T19:52:54.974Z,3.55
2023-03-13T19:55:22.315Z,3.88
2023-03-13T19:57:49.865Z,3.88
2023-03-13T20:00:24.271Z,3.90
2023-03-13T20:02:54.241Z,4.32
2023-03-13T20:05:22.113Z,6.20
2023-03-13T20:07:49.375Z,4.28
2023-03-13T20:10:16.670Z,4.63
2023-03-13T20:12:44.155Z,3.15
2023-03-13T20:15:11.548Z,3.75
2023-03-13T20:17:38.824Z,4.85
2023-03-13T20:20:07.793Z,4.00
2023-03-13T20:22:35.156Z,3.67
2023-03-13T20:25:02.918Z,3.72
2023-03-13T20:27:30.167Z,4.10
2023-03-13T20:29:57.445Z,3.38
2023-03-13T20:32:24.682Z,2.72
2023-03-13T20:34:52.213Z,2.85
2023-03-13T20:37:20.206Z,2.67
2023-03-13T20:39:47.449Z,3.35
2023-03-13T20:42:15.981Z,3.15
2023-03-13T20:44:43.289Z,3.30
2023-03-13T20:47:10.659Z,4.28
2023-03-13T20:49:40.486Z,3.72
2023-03-13T20:52:07.696Z,3.95
2023-03-13T20:54:35.288Z,3.63
2023-03-13T20:57:03.746Z,4.25
2023-03-13T20:59:31.513Z,4.35
2023-03-13T21:01:58.703Z,5.53
2023-03-13T21:04:26.159Z,6.22
2023-03-13T21:06:53.715Z,3.38
2023-03-13T21:09:20.908Z,3.80
2023-03-13T21:11:48.186Z,4.28
2023-03-13T21:14:15.437Z,3.72
2023-03-13T21:16:42.622Z,4.00
2023-03-13T21:19:09.956Z,3.95
2023-03-13T21:21:38.537Z,3.72
2023-03-13T21:24:07.192Z,3.70
2023-03-13T21:26:34.399Z,3.35
2023-03-13T21:29:01.610Z,2.97
2023-03-13T21:31:29.522Z,3.40
2023-03-13T21:33:57.368Z,2.83
2023-03-13T21:36:24.578Z,2.65
2023-03-13T21:38:52.112Z,2.78
2023-03-13T21:41:21.485Z,3.25
2023-03-13T21:43:49.018Z,2.60
2023-03-13T21:46:19.376Z,3.20
2023-03-13T21:51:18.619Z,2.85
2023-03-13T21:53:45.947Z,3.50
2023-03-13T21:56:15.000Z,3.75
2023-03-13T21:58:44.641Z,3.83
2023-03-13T22:01:13.530Z,6.13
2023-03-13T22:03:41.727Z,4.15
2023-03-13T22:06:18.347Z,5.10
2023-03-13T22:08:46.574Z,5.53
2023-03-13T22:11:14.091Z,4.13
2023-03-13T22:13:41.286Z,3.30
2023-03-13T22:16:12.251Z,2.80
2023-03-13T22:18:41.639Z,2.28
2023-03-13T22:21:09.058Z,2.10
2023-03-13T22:23:36.212Z,2.60
2023-03-13T22:26:03.670Z,2.83
2023-03-13T22:28:31.042Z,1.83
2023-03-13T22:31:03.185Z,2.00
2023-03-13T22:33:30.910Z,1.83
2023-03-13T22:35:58.720Z,3.10
2023-03-13T22:38:25.881Z,4.40
2023-03-13T22:41:05.797Z,1.80
2023-03-13T22:43:33.745Z,3.85
2023-03-13T22:46:03.879Z,1.58
2023-03-13T22:48:31.637Z,1.60
2023-03-13T22:51:08.434Z,3.08
2023-03-13T22:53:38.557Z,2.08
2023-03-13T22:56:09.280Z,1.80
2023-03-13T22:58:38.373Z,2.40
2023-03-13T23:01:12.757Z,2.10
2023-03-13T23:03:40.166Z,2.13
2023-03-13T23:06:12.330Z,5.95
2023-03-13T23:08:40.506Z,2.63
2023-03-13T23:11:08.938Z,1.38
2023-03-13T23:13:36.217Z,1.40
2023-03-13T23:16:09.954Z,1.05
2023-03-13T23:18:38.087Z,1.38
2023-03-13T23:21:13.907Z,1.45
2023-03-13T23:23:42.761Z,1.98
2023-03-13T23:26:15.143Z,2.10
2023-03-13T23:28:42.681Z,2.33
2023-03-13T23:31:17.515Z,1.83
2023-03-13T23:33:46.118Z,1.42
2023-03-13T23:36:18.413Z,1.38
2023-03-13T23:38:50.500Z,5.70
2023-03-13T23:41:18.944Z,5.70
2023-03-13T23:43:46.522Z,1.85
2023-03-13T23:46:22.117Z,2.00
2023-03-13T23:48:55.950Z,1.92
2023-03-13T23:51:25.039Z,2.05
2023-03-13T23:53:52.361Z,2.00
2023-03-13T23:56:19.670Z,1.70
2023-03-13T23:58:46.825Z,1.45
